createdAt,value
2019-03-12T00:00:35.900Z,1.60
2019-03-12T00:03:04.333Z,1.73
2019-03-12T00:05:32.181Z,1.77
2019-03-12T00:08:00.089Z,1.40
2019-03-12T00:10:28.007Z,1.50
2019-03-12T00:12:55.975Z,1.60
2019-03-12T00:15:23.964Z,1.87
2019-03-12T00:17:51.837Z,2.00
2019-03-12T00:20:20.013Z,1.90
2019-03-12T00:22:47.990Z,1.70
2019-03-12T00:25:16.100Z,1.60
2019-03-12T00:27:44.242Z,1.50
2019-03-12T00:30:12.409Z,2.57
2019-03-12T00:32:40.263Z,2.07
2019-03-12T00:35:08.240Z,1.73
2019-03-12T00:37:36.134Z,1.93
2019-03-12T00:40:04.139Z,1.90
2019-03-12T00:42:31.994Z,1.73
2019-03-12T00:45:00.095Z,1.60
2019-03-12T00:47:28.340Z,2.00
2019-03-12T00:49:56.313Z,1.50
2019-03-12T00:52:24.295Z,1.77
2019-03-12T00:54:52.165Z,2.00
2019-03-12T00:57:20.226Z,1.67
2019-03-12T00:59:48.110Z,1.50
2019-03-12T01:02:16.315Z,1.87
2019-03-12T01:04:44.240Z,2.17
2019-03-12T01:07:12.088Z,2.40
2019-03-12T01:09:39.994Z,2.33
2019-03-12T01:12:07.855Z,2.37
2019-03-12T01:14:35.723Z,2.20
2019-03-12T01:17:03.602Z,2.53
2019-03-12T01:19:31.804Z,1.90
2019-03-12T01:21:59.639Z,2.30
2019-03-12T01:24:27.476Z,2.50
2019-03-12T01:26:55.491Z,1.93
2019-03-12T01:29:23.401Z,2.20
2019-03-12T01:31:51.370Z,1.77
2019-03-12T01:34:19.315Z,2.10
2019-03-12T01:36:47.232Z,1.97
2019-03-12T01:39:16.217Z,2.60
2019-03-12T01:41:44.121Z,1.50
2019-03-12T01:44:12.161Z,2.33
2019-03-12T01:46:40.082Z,2.10
2019-03-12T01:49:08.339Z,2.53
2019-03-12T01:51:36.181Z,1.77
2019-03-12T01:54:04.056Z,1.80
2019-03-12T01:56:31.967Z,1.90
2019-03-12T01:58:59.803Z,1.73
2019-03-12T02:01:27.736Z,1.90
2019-03-12T02:03:55.681Z,2.53
2019-03-12T02:06:23.739Z,2.27
2019-03-12T02:08:51.662Z,2.20
2019-03-12T02:11:19.573Z,2.00
2019-03-12T02:13:47.518Z,2.20
2019-03-12T02:16:15.483Z,2.10
2019-03-12T02:18:43.460Z,2.17
2019-03-12T02:21:11.355Z,2.07
2019-03-12T02:23:39.245Z,1.93
2019-03-12T02:26:07.198Z,3.03
2019-03-12T02:28:35.088Z,1.67
2019-03-12T02:31:03.196Z,2.40
2019-03-12T02:33:31.264Z,2.20
2019-03-12T02:35:59.398Z,2.40
2019-03-12T02:38:27.301Z,2.60
2019-03-12T02:40:55.207Z,2.23
2019-03-12T02:43:24.185Z,2.37
2019-03-12T02:45:52.224Z,2.47
2019-03-12T02:48:20.175Z,2.13
2019-03-12T02:50:48.129Z,2.07
2019-03-12T02:53:16.019Z,1.80
2019-03-12T02:55:44.367Z,2.20
2019-03-12T02:58:12.388Z,2.03
2019-03-12T03:00:40.324Z,1.50
2019-03-12T03:03:08.271Z,2.10
2019-03-12T03:05:45.326Z,2.00
2019-03-12T03:08:13.508Z,2.00
2019-03-12T03:10:41.377Z,2.90
2019-03-12T03:13:09.225Z,1.77
2019-03-12T03:15:40.607Z,2.63
2019-03-12T03:18:08.486Z,2.20
2019-03-12T03:20:36.637Z,2.10
2019-03-12T03:23:04.560Z,2.20
2019-03-12T03:25:32.557Z,2.10
2019-03-12T03:28:00.442Z,2.50
2019-03-12T03:30:28.370Z,2.00
2019-03-12T03:32:56.223Z,2.63
2019-03-12T03:35:24.130Z,2.53
2019-03-12T03:37:52.034Z,2.30
2019-03-12T03:40:20.239Z,2.53
2019-03-12T03:42:48.444Z,2.00
2019-03-12T03:45:19.096Z,1.87
2019-03-12T03:47:46.961Z,2.60
2019-03-12T03:50:15.008Z,2.20
2019-03-12T03:52:42.946Z,2.43
2019-03-12T03:55:11.767Z,2.23
2019-03-12T03:57:39.951Z,2.47
2019-03-12T04:00:09.984Z,2.80
2019-03-12T04:02:38.038Z,2.40
2019-03-12T04:05:06.129Z,3.07
2019-03-12T04:07:34.318Z,2.30
2019-03-12T04:10:02.438Z,2.90
2019-03-12T04:12:30.545Z,2.23
2019-03-12T04:14:58.713Z,2.33
2019-03-12T04:17:26.818Z,2.80
2019-03-12T04:19:55.030Z,2.27
2019-03-12T04:22:23.232Z,2.50
2019-03-12T04:24:51.411Z,3.23
2019-03-12T04:27:19.569Z,2.93
2019-03-12T04:29:47.679Z,2.87
2019-03-12T04:32:16.031Z,2.43
2019-03-12T04:34:44.175Z,3.23
2019-03-12T04:37:12.389Z,2.60
2019-03-12T04:39:40.628Z,3.47
2019-03-12T04:42:08.804Z,2.10
2019-03-12T04:44:37.023Z,2.80
2019-03-12T04:47:05.203Z,2.40
2019-03-12T04:49:33.379Z,2.70
2019-03-12T04:52:01.621Z,2.53
2019-03-12T04:54:29.792Z,2.80
2019-03-12T04:56:58.008Z,2.60
2019-03-12T04:59:26.546Z,2.67
2019-03-12T05:01:55.142Z,2.73
2019-03-12T05:04:23.353Z,2.20
2019-03-12T05:06:51.719Z,2.43
2019-03-12T05:09:19.988Z,2.90
2019-03-12T05:11:48.166Z,3.37
2019-03-12T05:14:35.449Z,2.30
2019-03-12T05:17:22.669Z,3.13
2019-03-12T05:19:50.832Z,3.70
2019-03-12T05:22:19.858Z,3.60
2019-03-12T05:24:48.015Z,3.27
2019-03-12T05:27:16.177Z,2.60
2019-03-12T05:29:44.366Z,2.80
2019-03-12T05:32:12.761Z,2.80
2019-03-12T05:34:40.912Z,2.90
2019-03-12T05:37:09.046Z,2.87
2019-03-12T05:39:37.214Z,2.80
2019-03-12T05:42:05.461Z,3.00
2019-03-12T05:44:33.597Z,2.97
2019-03-12T05:47:02.047Z,3.50
2019-03-12T05:49:30.309Z,2.70
2019-03-12T05:51:58.629Z,2.83
2019-03-12T05:54:27.152Z,2.80
2019-03-12T05:56:55.517Z,3.07
2019-03-12T05:59:23.908Z,3.10
2019-03-12T06:01:52.153Z,3.03
2019-03-12T06:04:20.333Z,2.80
2019-03-12T06:06:48.778Z,3.47
2019-03-12T06:09:29.421Z,3.57
2019-03-12T06:11:47.087Z,2.83
2019-03-12T06:14:15.521Z,3.80
2019-03-12T06:16:43.719Z,2.87
2019-03-12T06:19:12.132Z,3.33
2019-03-12T06:21:40.584Z,3.63
2019-03-12T06:24:09.172Z,3.37
2019-03-12T06:26:37.269Z,3.50
2019-03-12T06:29:05.570Z,3.80
2019-03-12T06:31:55.753Z,3.33
2019-03-12T06:34:45.964Z,3.03
2019-03-12T06:37:39.017Z,3.43
2019-03-12T06:40:26.387Z,3.07
2019-03-12T06:42:59.992Z,2.60
2019-03-12T06:45:43.313Z,2.97
2019-03-12T06:48:23.621Z,3.50
2019-03-12T06:51:13.729Z,2.90
2019-03-12T06:53:51.504Z,3.53
2019-03-12T06:56:50.587Z,3.03
2019-03-12T06:59:34.524Z,2.90
2019-03-12T07:02:20.275Z,3.30
2019-03-12T07:05:10.192Z,2.77
2019-03-12T07:08:09.214Z,3.10
2019-03-12T07:10:47.991Z,2.80
2019-03-12T07:13:40.648Z,3.17
2019-03-12T07:16:25.922Z,3.77
2019-03-12T07:19:15.779Z,2.30
2019-03-12T07:22:05.935Z,2.47
2019-03-12T07:25:08.301Z,2.20
2019-03-12T07:28:07.418Z,2.77
2019-03-12T07:30:52.077Z,2.43
2019-03-12T07:33:41.990Z,3.43
2019-03-12T07:36:34.937Z,3.23
2019-03-12T07:39:19.992Z,3.47
2019-03-12T07:42:10.244Z,2.40
2019-03-12T07:44:45.979Z,2.60
2019-03-12T07:47:35.161Z,2.40
2019-03-12T07:50:11.066Z,2.20
2019-03-12T07:52:56.984Z,2.00
2019-03-12T07:55:59.350Z,2.13
2019-03-12T07:58:38.702Z,2.03
2019-03-12T08:01:21.455Z,2.23
2019-03-12T08:04:02.899Z,2.37
2019-03-12T08:06:51.735Z,1.90
2019-03-12T08:09:38.955Z,1.90
2019-03-12T08:12:34.915Z,2.10
2019-03-12T08:15:30.954Z,1.80
2019-03-12T08:18:21.262Z,2.00
2019-03-12T08:21:22.385Z,1.93
2019-03-12T08:23:53.791Z,1.90
2019-03-12T08:26:39.263Z,1.93
2019-03-12T08:29:26.579Z,2.00
2019-03-12T08:32:25.524Z,2.23
2019-03-12T08:35:11.340Z,1.60
2019-03-12T08:38:10.485Z,2.03
2019-03-12T08:40:56.120Z,2.00
2019-03-12T08:43:49.557Z,2.10
2019-03-12T08:46:30.324Z,1.70
2019-03-12T08:49:23.510Z,2.57
2019-03-12T08:52:09.053Z,2.10
2019-03-12T08:55:03.943Z,2.60
2019-03-12T08:57:57.005Z,2.17
2019-03-12T09:00:56.093Z,1.90
2019-03-12T09:03:58.635Z,1.80
2019-03-12T09:06:36.508Z,2.20
2019-03-12T09:09:31.472Z,2.30
2019-03-12T09:12:24.504Z,1.60
2019-03-12T09:15:11.516Z,2.13
2019-03-12T09:18:01.496Z,1.60
2019-03-12T09:20:48.694Z,2.10
2019-03-12T09:23:45.059Z,2.57
2019-03-12T09:26:25.313Z,2.77
2019-03-12T09:29:10.818Z,1.90
2019-03-12T09:32:15.946Z,2.50
2019-03-12T09:35:05.615Z,1.50
2019-03-12T09:37:51.050Z,2.47
2019-03-12T09:40:29.097Z,1.90
2019-03-12T09:43:13.422Z,1.93
2019-03-12T09:46:03.437Z,2.20
2019-03-12T09:48:50.693Z,1.70
2019-03-12T09:51:23.456Z,1.87
2019-03-12T09:54:09.225Z,2.00
2019-03-12T09:56:49.188Z,1.90
2019-03-12T09:59:29.765Z,1.43
2019-03-12T10:02:07.327Z,1.80
2019-03-12T10:04:54.554Z,1.57
2019-03-12T10:07:47.786Z,1.90
2019-03-12T10:10:22.926Z,1.80
2019-03-12T10:13:05.161Z,1.80
2019-03-12T10:15:50.660Z,1.57
2019-03-12T10:18:36.517Z,1.90
2019-03-12T10:21:32.661Z,1.90
2019-03-12T10:24:19.028Z,1.83
2019-03-12T10:27:09.012Z,2.43
2019-03-12T10:29:59.138Z,1.63
2019-03-12T10:33:01.433Z,2.13
2019-03-12T10:35:52.849Z,2.80
2019-03-12T10:38:51.147Z,1.90
2019-03-12T10:41:38.134Z,2.43
2019-03-12T10:44:17.532Z,1.67
2019-03-12T10:46:50.650Z,2.37
2019-03-12T10:49:18.864Z,2.80
2019-03-12T10:51:47.071Z,1.93
2019-03-12T10:54:15.220Z,2.17
2019-03-12T10:56:43.345Z,1.90
2019-03-12T10:59:11.482Z,1.97
2019-03-12T11:01:39.700Z,2.43
2019-03-12T11:04:07.858Z,1.80
2019-03-12T11:06:36.006Z,1.70
2019-03-12T11:09:05.897Z,1.97
2019-03-12T11:11:34.076Z,2.30
2019-03-12T11:14:02.220Z,2.10
2019-03-12T11:16:30.689Z,2.07
2019-03-12T11:18:59.071Z,2.13
2019-03-12T11:21:27.335Z,2.33
2019-03-12T11:23:55.565Z,1.87
2019-03-12T11:26:23.822Z,2.20
2019-03-12T11:28:52.268Z,1.70
2019-03-12T11:31:20.479Z,1.90
2019-03-12T11:33:48.667Z,1.90
2019-03-12T11:36:16.926Z,1.60
2019-03-12T11:38:45.202Z,2.47
2019-03-12T11:41:13.321Z,2.13
2019-03-12T11:43:41.556Z,1.50
2019-03-12T11:46:09.720Z,1.93
2019-03-12T11:48:37.926Z,1.50
2019-03-12T11:51:06.372Z,1.43
2019-03-12T11:53:34.520Z,2.03
2019-03-12T11:56:02.879Z,1.40
2019-03-12T11:58:31.125Z,1.73
2019-03-12T12:01:01.832Z,1.37
2019-03-12T12:03:30.029Z,1.40
2019-03-12T12:05:58.239Z,1.90
2019-03-12T12:08:26.449Z,1.60
2019-03-12T12:10:54.613Z,1.30
2019-03-12T12:13:22.754Z,1.40
2019-03-12T12:15:50.963Z,1.77
2019-03-12T12:18:19.163Z,1.50
2019-03-12T12:20:47.397Z,1.70
2019-03-12T12:23:15.549Z,1.53
2019-03-12T12:25:43.946Z,1.30
2019-03-12T12:28:12.086Z,2.30
2019-03-12T12:30:40.437Z,1.20
2019-03-12T12:33:08.761Z,1.57
2019-03-12T12:35:37.030Z,1.40
2019-03-12T12:38:05.152Z,1.47
2019-03-12T12:40:33.351Z,1.50
2019-03-12T12:43:01.573Z,1.50
2019-03-12T12:45:29.852Z,1.70
2019-03-12T12:47:58.055Z,1.30
2019-03-12T12:50:26.340Z,1.80
2019-03-12T12:52:54.482Z,1.53
2019-03-12T12:55:23.884Z,1.37
2019-03-12T12:57:51.979Z,1.50
2019-03-12T13:00:20.330Z,1.60
2019-03-12T13:02:48.718Z,1.70
2019-03-12T13:05:16.818Z,1.50
2019-03-12T13:07:45.137Z,1.53
2019-03-12T13:10:14.734Z,1.60
2019-03-12T13:12:42.954Z,1.30
2019-03-12T13:15:11.201Z,1.23
2019-03-12T13:17:39.612Z,1.40
2019-03-12T13:20:07.917Z,1.30
2019-03-12T13:22:36.135Z,1.30
2019-03-12T13:25:04.776Z,1.47
2019-03-12T13:27:42.107Z,1.73
2019-03-12T13:30:03.051Z,1.23
2019-03-12T13:32:31.220Z,1.37
2019-03-12T13:34:59.323Z,1.23
2019-03-12T13:37:27.534Z,1.30
2019-03-12T13:39:56.020Z,1.20
2019-03-12T13:42:24.152Z,1.70
2019-03-12T13:44:52.426Z,1.47
2019-03-12T13:47:20.567Z,1.60
2019-03-12T13:49:48.775Z,1.40
2019-03-12T13:52:16.929Z,1.60
2019-03-12T13:54:45.123Z,1.17
2019-03-12T13:57:13.779Z,1.30
2019-03-12T13:59:41.900Z,1.20
2019-03-12T14:02:10.317Z,1.00
2019-03-12T14:04:38.386Z,1.20
2019-03-12T14:07:06.685Z,1.10
2019-03-12T14:09:34.870Z,1.50
2019-03-12T14:12:03.137Z,1.33
2019-03-12T14:14:31.285Z,1.17
2019-03-12T14:16:59.474Z,1.30
2019-03-12T14:19:27.734Z,0.90
2019-03-12T14:21:55.952Z,1.03
2019-03-12T14:24:24.175Z,1.27
2019-03-12T14:26:52.345Z,1.00
2019-03-12T14:29:20.602Z,0.87
2019-03-12T14:31:48.814Z,1.10
2019-03-12T14:34:17.037Z,0.90
2019-03-12T14:36:45.277Z,0.60
2019-03-12T14:39:13.662Z,0.90
2019-03-12T14:41:41.992Z,0.70
2019-03-12T14:44:10.590Z,0.80
2019-03-12T14:46:38.824Z,1.43
2019-03-12T14:49:07.505Z,0.80
2019-03-12T14:51:51.395Z,0.67
2019-03-12T14:54:19.627Z,0.70
2019-03-12T14:56:47.839Z,0.87
2019-03-12T14:59:15.954Z,0.50
2019-03-12T15:01:44.233Z,1.07
2019-03-12T15:04:14.866Z,0.60
2019-03-12T15:06:42.502Z,0.73
2019-03-12T15:09:12.785Z,0.70
2019-03-12T15:11:40.966Z,0.70
2019-03-12T15:14:09.303Z,0.80
2019-03-12T15:16:37.454Z,0.90
2019-03-12T15:19:05.823Z,0.80
2019-03-12T15:21:34.004Z,1.10
2019-03-12T15:24:02.149Z,0.80
2019-03-12T15:26:30.412Z,0.90
2019-03-12T15:28:58.583Z,0.80
2019-03-12T15:31:26.802Z,0.73
2019-03-12T15:33:54.953Z,1.93
2019-03-12T15:36:23.150Z,0.97
2019-03-12T15:38:51.457Z,0.70
2019-03-12T15:41:19.788Z,0.87
2019-03-12T15:43:47.903Z,0.90
2019-03-12T15:46:16.181Z,0.80
2019-03-12T15:48:44.308Z,0.87
2019-03-12T15:51:12.586Z,0.70
2019-03-12T15:53:40.803Z,0.97
2019-03-12T15:56:09.003Z,1.20
2019-03-12T15:58:37.100Z,0.70
2019-03-12T16:01:05.325Z,1.00
2019-03-12T16:03:33.568Z,1.03
2019-03-12T16:06:01.806Z,0.80
2019-03-12T16:08:30.026Z,1.40
2019-03-12T16:10:58.753Z,7.27
2019-03-12T16:13:27.044Z,1.10
2019-03-12T16:15:55.299Z,0.90
2019-03-12T16:18:23.751Z,1.00
2019-03-12T16:20:52.083Z,0.80
2019-03-12T16:23:20.247Z,1.00
2019-03-12T16:25:48.562Z,0.90
2019-03-12T16:28:16.902Z,0.93
2019-03-12T16:30:45.135Z,1.50
2019-03-12T16:33:13.417Z,1.00
2019-03-12T16:35:41.527Z,1.17
2019-03-12T16:38:09.667Z,0.93
2019-03-12T16:40:37.941Z,1.00
2019-03-12T16:43:06.104Z,1.10
2019-03-12T16:45:34.297Z,1.07
2019-03-12T16:48:02.501Z,1.40
2019-03-12T16:50:30.727Z,1.00
2019-03-12T16:52:58.873Z,1.20
2019-03-12T16:55:27.054Z,0.80
2019-03-12T16:57:55.258Z,1.10
2019-03-12T17:00:23.563Z,1.20
2019-03-12T17:02:51.666Z,1.17
2019-03-12T17:05:19.942Z,1.07
2019-03-12T17:07:48.018Z,0.97
2019-03-12T17:10:16.442Z,1.37
2019-03-12T17:12:44.768Z,1.40
2019-03-12T17:15:13.303Z,1.50
2019-03-12T17:17:41.628Z,1.57
2019-03-12T17:20:10.690Z,1.50
2019-03-12T17:22:45.988Z,1.10
2019-03-12T17:25:14.439Z,1.27
2019-03-12T17:27:42.753Z,1.23
2019-03-12T17:30:12.698Z,1.30
2019-03-12T17:32:41.398Z,1.27
2019-03-12T17:35:10.342Z,1.40
2019-03-12T17:37:38.649Z,1.40
2019-03-12T17:40:14.665Z,2.03
2019-03-12T17:42:43.287Z,2.67
2019-03-12T17:45:11.769Z,2.10
2019-03-12T17:47:40.034Z,2.27
2019-03-12T17:50:08.786Z,2.00
2019-03-12T17:52:37.096Z,2.13
2019-03-12T17:55:05.444Z,2.40
2019-03-12T17:57:33.656Z,2.23
2019-03-12T18:00:01.833Z,2.37
2019-03-12T18:02:42.134Z,2.17
2019-03-12T18:05:02.573Z,4.30
2019-03-12T18:07:31.013Z,5.37
2019-03-12T18:09:59.401Z,3.40
2019-03-12T18:12:27.818Z,3.10
2019-03-12T18:14:55.968Z,2.73
2019-03-12T18:17:24.166Z,2.80
2019-03-12T18:19:52.319Z,2.50
2019-03-12T18:22:20.553Z,2.77
2019-03-12T18:24:48.826Z,3.53
2019-03-12T18:27:17.186Z,2.97
2019-03-12T18:29:45.456Z,3.40
2019-03-12T18:32:13.610Z,2.83
2019-03-12T18:34:41.904Z,2.87
2019-03-12T18:37:10.145Z,3.77
2019-03-12T18:39:38.499Z,4.53
2019-03-12T18:42:06.668Z,4.10
2019-03-12T18:44:34.830Z,3.63
2019-03-12T18:47:03.083Z,3.30
2019-03-12T18:49:31.457Z,3.60
2019-03-12T18:51:59.822Z,3.47
2019-03-12T18:54:28.153Z,3.73
2019-03-12T18:56:56.519Z,3.77
2019-03-12T18:59:24.876Z,3.97
2019-03-12T19:01:53.106Z,3.00
2019-03-12T19:04:21.224Z,3.20
2019-03-12T19:06:49.409Z,4.20
2019-03-12T19:09:17.533Z,3.77
2019-03-12T19:11:48.519Z,3.50
2019-03-12T19:14:15.610Z,2.93
2019-03-12T19:16:43.777Z,2.80
2019-03-12T19:19:12.225Z,2.97
2019-03-12T19:21:40.481Z,3.10
2019-03-12T19:24:08.631Z,3.93
2019-03-12T19:26:36.833Z,3.13
2019-03-12T19:29:05.021Z,3.50
2019-03-12T19:32:04.427Z,4.03
2019-03-12T19:34:34.403Z,3.13
2019-03-12T19:37:02.530Z,2.73
2019-03-12T19:39:30.711Z,3.00
2019-03-12T19:41:58.961Z,2.50
2019-03-12T19:44:27.135Z,2.57
2019-03-12T19:46:55.378Z,3.00
2019-03-12T19:49:23.562Z,2.93
2019-03-12T19:51:51.867Z,3.00
2019-03-12T19:54:20.083Z,2.80
2019-03-12T19:56:48.324Z,2.63
2019-03-12T19:59:16.493Z,2.80
2019-03-12T20:01:45.041Z,2.30
2019-03-12T20:04:13.207Z,1.90
2019-03-12T20:06:41.591Z,1.30
2019-03-12T20:09:10.261Z,1.47
2019-03-12T20:11:53.154Z,1.50
2019-03-12T20:14:40.416Z,1.20
2019-03-12T20:17:16.664Z,1.00
2019-03-12T20:20:02.491Z,1.27
2019-03-12T20:22:48.243Z,1.00
2019-03-12T20:25:34.047Z,1.13
2019-03-12T20:28:18.100Z,1.70
2019-03-12T20:31:17.412Z,1.27
2019-03-12T20:34:10.441Z,1.30
2019-03-12T20:36:56.017Z,1.00
2019-03-12T20:39:55.740Z,1.17
2019-03-12T20:42:41.319Z,1.20
2019-03-12T20:45:31.545Z,0.70
2019-03-12T20:48:21.404Z,1.20
2019-03-12T20:51:07.016Z,1.20
2019-03-12T20:53:52.554Z,0.87
2019-03-12T20:56:40.110Z,1.00
2019-03-12T20:59:39.203Z,1.00
2019-03-12T21:02:24.822Z,0.70
2019-03-12T21:05:17.890Z,1.10
2019-03-12T21:08:05.062Z,1.27
2019-03-12T21:11:01.173Z,1.10
2019-03-12T21:13:47.124Z,1.40
2019-03-12T21:16:34.608Z,1.00
2019-03-12T21:19:20.774Z,1.03
2019-03-12T21:22:04.347Z,1.10
2019-03-12T21:24:54.647Z,1.10
2019-03-12T21:27:29.518Z,0.93
2019-03-12T21:29:56.781Z,1.00
2019-03-12T21:32:24.982Z,1.10
2019-03-12T21:34:53.174Z,1.40
2019-03-12T21:37:21.370Z,1.17
2019-03-12T21:39:55.753Z,1.10
2019-03-12T21:42:19.448Z,0.93
2019-03-12T21:44:47.688Z,1.20
2019-03-12T21:47:16.058Z,1.10
2019-03-12T21:49:44.271Z,1.30
2019-03-12T21:52:12.498Z,1.60
2019-03-12T21:54:40.770Z,1.60
2019-03-12T21:57:09.056Z,1.10
2019-03-12T21:59:38.238Z,1.50
2019-03-12T22:02:06.449Z,1.50
2019-03-12T22:04:34.645Z,1.40
2019-03-12T22:07:02.862Z,1.20
2019-03-12T22:09:31.133Z,1.00
2019-03-12T22:11:59.399Z,1.63
2019-03-12T22:14:27.553Z,1.13
2019-03-12T22:16:57.821Z,1.27
2019-03-12T22:19:26.012Z,0.90
2019-03-12T22:22:05.334Z,1.33
2019-03-12T22:24:33.530Z,1.37
2019-03-12T22:27:02.766Z,1.20
2019-03-12T22:29:30.973Z,1.10
2019-03-12T22:31:59.090Z,0.90
2019-03-12T22:34:30.074Z,1.37
2019-03-12T22:36:57.377Z,1.33
2019-03-12T22:39:25.485Z,1.07
2019-03-12T22:41:53.706Z,1.20
2019-03-12T22:44:21.986Z,0.97
2019-03-12T22:46:50.170Z,1.30
2019-03-12T22:49:18.408Z,1.30
2019-03-12T22:51:46.569Z,1.33
2019-03-12T22:54:14.815Z,1.47
2019-03-12T22:56:42.925Z,1.90
2019-03-12T22:59:11.223Z,1.90
2019-03-12T23:01:39.454Z,1.67
2019-03-12T23:04:07.677Z,1.57
2019-03-12T23:06:35.950Z,1.57
2019-03-12T23:09:05.690Z,1.47
2019-03-12T23:11:33.819Z,1.50
2019-03-12T23:14:01.976Z,1.70
2019-03-12T23:16:30.260Z,1.40
2019-03-12T23:18:58.511Z,1.93
2019-03-12T23:21:26.545Z,1.20
2019-03-12T23:23:54.756Z,1.00
2019-03-12T23:26:22.898Z,0.80
2019-03-12T23:28:51.062Z,0.77
2019-03-12T23:31:19.294Z,0.70
2019-03-12T23:33:47.468Z,1.10
2019-03-12T23:36:15.711Z,0.60
2019-03-12T23:38:44.060Z,0.40
2019-03-12T23:41:13.337Z,0.57
2019-03-12T23:43:41.577Z,0.40
2019-03-12T23:46:09.822Z,0.60
2019-03-12T23:48:38.002Z,0.50
2019-03-12T23:51:06.099Z,0.60
2019-03-12T23:53:34.355Z,0.40
2019-03-12T23:56:02.558Z,0.40
2019-03-12T23:58:31.007Z,0.40
